Time;durP1;ratioP1;P1;durP2;ratioP2;P2;SDS_P1;SDS_P2;PMS_P1;PMS_P2;Temp;Humidity;BMP_temperature;BMP_pressure;BME280_temperature;BME280_humidity;BME280_pressure;Samples;Min_cycle;Max_cycle;Signal;HPM_P1;HPM_P2
2022/10/06 00:00:53;;;;;;;5.13;2.08;;;;;;;7.24;93.13;95889.41;5129977;27;20265;-73
2022/10/06 00:03:21;;;;;;;3.17;1.73;;;;;;;7.22;93.39;95887.00;5129638;27;20224;-73
2022/10/06 00:05:49;;;;;;;4.35;2.42;;;;;;;7.21;93.36;95895.34;5130201;27;20295;-73
2022/10/06 00:08:17;;;;;;;3.97;2.85;;;;;;;7.13;93.38;95894.81;5129893;27;20205;-73
2022/10/06 00:10:43;;;;;;;3.45;2.17;;;;;;;7.12;93.71;95893.22;5130574;27;20670;-73
2022/10/06 00:13:10;;;;;;;3.13;1.60;;;;;;;7.05;94.37;95881.94;5130581;27;20234;-73
2022/10/06 00:15:37;;;;;;;2.00;1.73;;;;;;;7.03;94.20;95894.88;5130595;27;20225;-73
2022/10/06 00:18:04;;;;;;;5.72;2.03;;;;;;;7.04;94.36;95885.69;5129378;27;20743;-73
2022/10/06 00:20:31;;;;;;;7.70;3.70;;;;;;;6.95;94.63;95887.34;5129376;27;20201;-73
2022/10/06 00:22:59;;;;;;;8.35;3.92;;;;;;;7.00;94.78;95879.25;5129543;27;20772;-72
2022/10/06 00:25:27;;;;;;;5.72;4.07;;;;;;;7.04;94.50;95877.63;5129915;27;20260;-72
2022/10/06 00:27:54;;;;;;;6.55;4.10;;;;;;;7.13;94.16;95884.03;5129370;28;20193;-74
2022/10/06 00:30:23;;;;;;;10.57;4.30;;;;;;;7.12;94.38;95879.72;5140345;28;20205;-74
2022/10/06 00:32:52;;;;;;;8.45;4.05;;;;;;;7.15;94.05;95875.69;5133501;28;20201;-73
2022/10/06 00:35:20;;;;;;;6.82;3.97;;;;;;;7.09;94.13;95872.22;5132566;28;20671;-73
2022/10/06 00:37:47;;;;;;;4.35;3.25;;;;;;;7.09;94.28;95872.22;5130794;28;20272;-74
2022/10/06 00:40:15;;;;;;;6.78;4.30;;;;;;;7.13;94.47;95862.50;5129285;28;20277;-73
2022/10/06 00:42:54;;;;;;;8.00;3.88;;;;;;;7.16;94.18;95869.22;5130293;28;20216;-73
2022/10/06 00:45:26;;;;;;;4.90;3.60;;;;;;;7.02;94.21;95871.69;5129802;28;20256;-73
2022/10/06 00:47:54;;;;;;;4.78;3.10;;;;;;;7.03;93.94;95867.13;5129844;28;20245;-74
2022/10/06 00:50:21;;;;;;;7.32;4.00;;;;;;;6.90;93.83;95865.81;5129558;28;20240;-73
2022/10/06 00:52:48;;;;;;;3.22;2.45;;;;;;;6.84;94.49;95858.81;5129976;28;20204;-73
2022/10/06 00:55:19;;;;;;;2.10;1.75;;;;;;;6.88;95.09;95853.69;5130229;28;20637;-74
2022/10/06 00:57:47;;;;;;;2.95;1.77;;;;;;;6.90;94.83;95851.53;5130031;27;20659;-72
2022/10/06 01:00:14;;;;;;;4.15;2.42;;;;;;;6.90;95.87;95852.34;5134179;27;20258;-73
2022/10/06 01:02:45;;;;;;;2.72;2.28;;;;;;;6.96;95.94;95847.75;5133977;27;20225;-73
2022/10/06 01:05:17;;;;;;;3.60;1.77;;;;;;;6.98;95.64;95849.06;5133862;27;20678;-73
2022/10/06 01:07:44;;;;;;;4.05;2.03;;;;;;;6.94;95.22;95842.63;5133809;27;20200;-74
2022/10/06 01:10:11;;;;;;;4.80;1.63;;;;;;;6.86;95.10;95835.09;5133342;27;20683;-74
2022/10/06 01:12:39;;;;;;;2.83;2.00;;;;;;;6.76;95.05;95832.44;5133848;27;20257;-73
2022/10/06 01:15:08;;;;;;;4.13;1.67;;;;;;;6.78;95.27;95838.38;5133881;27;20262;-74
2022/10/06 01:17:38;;;;;;;4.60;2.03;;;;;;;6.87;95.21;95831.34;5133422;27;20226;-73
2022/10/06 01:20:07;;;;;;;3.90;2.03;;;;;;;6.82;95.50;95823.28;5133761;27;20201;-73
2022/10/06 01:22:38;;;;;;;2.55;1.73;;;;;;;6.74;95.93;95824.63;5133602;27;20288;-74
2022/10/06 01:25:07;;;;;;;3.33;2.20;;;;;;;6.76;96.11;95819.00;5133520;27;20232;-74
2022/10/06 01:27:35;;;;;;;3.05;1.90;;;;;;;6.73;95.71;95814.13;5133209;27;20643;-73
2022/10/06 01:30:03;;;;;;;1.95;1.75;;;;;;;6.73;95.79;95819.53;5133723;27;20200;-74
2022/10/06 01:32:34;;;;;;;5.38;2.25;;;;;;;6.67;95.38;95821.44;5133508;27;20325;-74
2022/10/06 01:35:01;;;;;;;4.30;1.58;;;;;;;6.55;95.90;95822.81;5133716;27;20204;-74
2022/10/06 01:37:28;;;;;;;4.00;1.67;;;;;;;6.45;96.83;95829.00;5133067;27;20547;-74
2022/10/06 01:39:56;;;;;;;3.50;1.48;;;;;;;6.52;96.53;95820.66;5133437;27;20609;-74
2022/10/06 01:42:23;;;;;;;2.72;1.35;;;;;;;6.56;96.30;95827.91;5132834;27;20200;-73
2022/10/06 01:44:50;;;;;;;2.13;1.50;;;;;;;6.61;96.05;95825.22;5133497;27;20236;-74
2022/10/06 01:47:17;;;;;;;2.28;1.77;;;;;;;6.62;95.48;95820.63;5132826;27;20905;-73
2022/10/06 01:49:43;;;;;;;2.78;1.98;;;;;;;6.59;94.72;95818.47;5132864;27;20224;-74
2022/10/06 01:52:10;;;;;;;8.77;1.33;;;;;;;6.56;94.62;95821.75;5119616;27;20201;-74
2022/10/06 01:54:37;;;;;;;5.30;2.33;;;;;;;6.54;94.76;95826.59;5132515;27;20613;-74
2022/10/06 01:57:07;;;;;;;3.92;2.03;;;;;;;6.53;94.75;95830.34;5133211;27;20328;-74
2022/10/06 01:59:34;;;;;;;6.07;2.40;;;;;;;6.58;94.60;95827.63;5133065;27;20209;-73
2022/10/06 02:02:01;;;;;;;3.92;2.30;;;;;;;6.47;94.28;95831.44;5133068;27;20582;-74
2022/10/06 02:04:28;;;;;;;2.15;1.63;;;;;;;6.37;94.69;95821.50;5132667;27;20807;-74
2022/10/06 02:06:55;;;;;;;2.25;1.85;;;;;;;6.43;94.71;95831.97;5132124;27;20730;-74
2022/10/06 02:09:22;;;;;;;2.03;1.65;;;;;;;6.42;94.93;95827.66;5133006;27;20543;-74
2022/10/06 02:11:52;;;;;;;4.53;1.65;;;;;;;6.38;95.04;95823.09;5132572;27;20213;-74
2022/10/06 02:14:20;;;;;;;3.10;1.40;;;;;;;6.42;94.80;95824.97;5132582;27;20205;-74
2022/10/06 02:16:47;;;;;;;1.75;1.38;;;;;;;6.38;94.56;95829.31;5132551;27;20273;-74
2022/10/06 02:19:15;;;;;;;2.72;1.75;;;;;;;6.39;95.09;95830.91;5132577;27;20209;-73
2022/10/06 02:21:41;;;;;;;3.78;1.23;;;;;;;6.39;95.13;95822.84;5132723;27;20287;-74
2022/10/06 02:24:09;;;;;;;4.18;2.17;;;;;;;6.42;95.20;95830.34;5132549;27;20312;-74
2022/10/06 02:26:35;;;;;;;2.45;1.55;;;;;;;6.43;95.29;95823.91;5132316;27;20204;-74
2022/10/06 02:29:02;;;;;;;1.58;1.48;;;;;;;6.43;95.29;95823.91;5132349;27;20660;-74
2022/10/06 02:31:31;;;;;;;4.32;1.92;;;;;;;6.32;95.46;95825.00;5132826;27;20193;-74
2022/10/06 02:33:58;;;;;;;4.85;1.77;;;;;;;6.40;95.58;95826.34;5132639;27;20681;-74
2022/10/06 02:36:25;;;;;;;1.45;1.25;;;;;;;6.40;95.22;95816.38;5132489;27;20204;-73
2022/10/06 02:38:52;;;;;;;1.98;1.45;;;;;;;6.29;95.55;95814.75;5132271;27;20548;-74
2022/10/06 02:41:19;;;;;;;1.83;1.63;;;;;;;6.29;95.67;95820.16;5132376;27;20583;-74
2022/10/06 02:43:46;;;;;;;4.50;3.40;;;;;;;6.21;96.19;95834.16;5131460;27;20755;-74
2022/10/06 02:46:13;;;;;;;9.30;3.55;;;;;;;6.20;96.82;95829.84;5132244;27;20672;-74
2022/10/06 02:48:43;;;;;;;6.22;3.40;;;;;;;6.23;96.46;95832.00;5131591;27;20552;-74
2022/10/06 02:51:12;;;;;;;5.97;3.45;;;;;;;6.14;96.58;95828.25;5131486;27;20232;-73
2022/10/06 02:53:39;;;;;;;2.40;1.48;;;;;;;6.18;97.10;95829.31;5132413;27;20216;-74
2022/10/06 02:56:11;;;;;;;5.72;2.15;;;;;;;6.17;96.40;95827.69;5132149;27;20205;-74
2022/10/06 02:58:38;;;;;;;2.53;1.90;;;;;;;6.29;95.95;95833.59;5132146;27;20314;-74
2022/10/06 03:01:07;;;;;;;2.92;1.70;;;;;;;6.36;94.99;95834.16;5130571;27;20755;-73
2022/10/06 03:03:35;;;;;;;4.65;2.33;;;;;;;6.32;94.29;95835.75;5131445;27;20205;-74
2022/10/06 03:06:06;;;;;;;5.93;2.05;;;;;;;6.29;94.70;95836.28;5131275;27;20258;-74
2022/10/06 03:08:47;;;;;;;2.92;1.83;;;;;;;6.33;95.16;95832.00;5131372;27;20250;-74
2022/10/06 03:11:14;;;;;;;8.50;2.38;;;;;;;6.27;94.97;95833.09;5131529;27;20608;-73
2022/10/06 03:13:41;;;;;;;4.25;2.63;;;;;;;6.29;95.04;95836.28;5131935;27;20475;-74
2022/10/06 03:16:15;;;;;;;4.38;2.08;;;;;;;6.32;95.09;95830.38;5131222;27;20232;-74
2022/10/06 03:18:44;;;;;;;2.80;2.00;;;;;;;6.28;95.13;95823.94;5132241;27;20208;-73
2022/10/06 03:21:13;;;;;;;3.60;2.55;;;;;;;6.30;95.22;95824.44;5131659;27;20295;-74
2022/10/06 03:23:40;;;;;;;4.70;2.17;;;;;;;6.32;95.51;95833.06;5131906;27;20200;-74
2022/10/06 03:26:07;;;;;;;4.30;2.13;;;;;;;6.22;95.43;95830.38;5118077;27;20200;-74
2022/10/06 03:28:34;;;;;;;2.65;1.63;;;;;;;6.21;95.63;95833.34;5131049;27;20204;-74
2022/10/06 03:31:02;;;;;;;3.67;2.30;;;;;;;6.18;95.26;95821.22;5131350;27;20552;-73
2022/10/06 03:33:30;;;;;;;3.40;2.22;;;;;;;6.21;95.39;95828.78;5131309;27;20237;-74
2022/10/06 03:36:01;;;;;;;5.65;3.25;;;;;;;6.14;95.57;95822.06;5131393;27;20205;-73
2022/10/06 03:38:32;;;;;;;12.07;5.78;;;;;;;6.08;95.67;95813.19;5131203;27;20609;-73
2022/10/06 03:41:06;;;;;;;7.32;2.50;;;;;;;6.14;95.92;95817.50;5130499;27;20352;-72
2022/10/06 03:43:34;;;;;;;5.18;2.60;;;;;;;6.07;95.91;95812.38;5130420;27;20201;-73
2022/10/06 03:46:02;;;;;;;8.73;3.90;;;;;;;6.11;96.13;95818.03;5130169;27;20233;-73
2022/10/06 03:48:32;;;;;;;5.60;2.97;;;;;;;5.98;96.57;95818.56;5130922;27;20204;-74
2022/10/06 03:51:00;;;;;;;8.85;3.80;;;;;;;5.83;96.88;95810.47;5130680;27;20244;-73
2022/10/06 03:53:29;;;;;;;4.18;2.38;;;;;;;5.80;98.10;95805.63;5130237;27;20197;-74
2022/10/06 03:56:02;;;;;;;2.97;2.20;;;;;;;5.93;98.30;95810.50;5130749;27;20204;-74
2022/10/06 03:58:29;;;;;;;5.07;2.95;;;;;;;6.17;96.37;95803.47;5130251;27;20209;-73
2022/10/06 04:01:00;;;;;;;4.57;2.28;;;;;;;6.22;95.34;95813.44;5130596;27;20229;-71
2022/10/06 04:03:27;;;;;;;5.40;3.13;;;;;;;6.16;95.26;95814.50;5129655;27;20463;-74
2022/10/06 04:05:55;;;;;;;4.77;2.70;;;;;;;5.98;95.33;95819.38;5129574;27;20442;-75
2022/10/06 04:08:22;;;;;;;10.18;2.63;;;;;;;6.00;95.77;95811.03;5129656;27;20680;-72
2022/10/06 04:10:48;;;;;;;4.78;1.95;;;;;;;6.06;95.70;95815.31;5129997;27;20209;-75
2022/10/06 04:13:17;;;;;;;4.35;2.20;;;;;;;6.15;95.46;95819.06;5130230;27;20197;-74
2022/10/06 04:15:44;;;;;;;4.63;1.98;;;;;;;6.06;95.68;95810.75;5131258;27;20217;-74
2022/10/06 04:18:11;;;;;;;2.88;1.90;;;;;;;6.14;95.97;95822.88;5130999;27;20205;-75
2022/10/06 04:20:38;;;;;;;5.68;2.85;;;;;;;6.13;95.82;95815.88;5130910;27;20683;-75
2022/10/06 04:23:06;;;;;;;3.38;2.13;;;;;;;6.07;95.77;95816.94;5130692;27;20261;-76
2022/10/06 04:25:34;;;;;;;3.42;2.22;;;;;;;6.08;95.77;95821.25;5129351;27;20645;-75
2022/10/06 04:28:00;;;;;;;3.28;2.25;;;;;;;6.04;95.70;95818.28;5124322;27;20197;-75
2022/10/06 04:30:29;;;;;;;2.53;1.60;;;;;;;6.07;95.81;95817.75;5129636;28;20660;-74
2022/10/06 04:32:56;;;;;;;9.25;2.67;;;;;;;6.08;95.57;95818.56;5128824;27;20193;-74
2022/10/06 04:35:23;;;;;;;9.65;2.60;;;;;;;6.11;95.71;95820.72;5130095;27;20211;-74
2022/10/06 04:37:50;;;;;;;6.15;2.88;;;;;;;6.11;95.93;95823.41;5129925;27;20727;-75
2022/10/06 04:40:18;;;;;;;4.75;2.58;;;;;;;6.15;96.11;95824.47;5130414;27;20213;-75
2022/10/06 04:42:45;;;;;;;4.20;2.92;;;;;;;6.27;96.22;95822.31;5130346;28;20211;-75
2022/10/06 04:45:12;;;;;;;2.17;1.75;;;;;;;6.17;97.08;95833.06;5130138;28;20233;-75
2022/10/06 04:47:40;;;;;;;4.68;2.90;;;;;;;6.31;97.73;95827.94;5130248;28;20578;-76
2022/10/06 04:50:08;;;;;;;3.50;2.40;;;;;;;6.68;97.29;95827.63;5130064;27;20532;-74
2022/10/06 04:52:34;;;;;;;2.88;1.75;;;;;;;7.25;96.59;95827.13;5130496;28;20208;-75
2022/10/06 04:55:02;;;;;;;5.15;3.50;;;;;;;7.71;94.05;95830.41;5129946;28;20197;-75
2022/10/06 04:57:29;;;;;;;4.20;2.45;;;;;;;8.03;90.87;95815.63;5130368;28;20221;-75
2022/10/06 05:02:42;;;;;;;4.22;2.95;;;;;;;8.36;87.62;95831.00;5130246;28;20242;-75
2022/10/06 05:05:09;;;;;;;3.15;1.75;;;;;;;8.52;87.24;95832.47;5109609;28;20695;-74
2022/10/06 05:07:35;;;;;;;3.53;2.15;;;;;;;8.78;85.88;95834.91;5123996;28;20193;-74
2022/10/06 05:10:02;;;;;;;5.57;3.00;;;;;;;9.03;84.50;95831.94;5130137;28;20290;-74
2022/10/06 05:12:30;;;;;;;5.95;2.80;;;;;;;9.26;83.08;95827.63;5129929;27;20785;-75
2022/10/06 05:14:57;;;;;;;3.47;2.10;;;;;;;9.52;81.88;95833.50;5130225;27;20236;-74
2022/10/06 05:17:24;;;;;;;4.25;2.50;;;;;;;10.00;80.95;95831.47;5130591;28;20197;-76
2022/10/06 05:19:52;;;;;;;6.60;2.95;;;;;;;10.68;79.41;95820.06;5130260;28;20201;-74
2022/10/06 05:22:18;;;;;;;7.50;2.88;;;;;;;11.55;75.48;95816.47;5130610;27;20198;-75
2022/10/06 05:24:45;;;;;;;9.10;3.13;;;;;;;12.09;73.14;95816.34;5130057;27;20265;-74
2022/10/06 05:27:12;;;;;;;6.18;3.13;;;;;;;12.40;72.71;95821.84;5122694;28;20617;-75
2022/10/06 05:29:39;;;;;;;10.55;2.90;;;;;;;12.71;72.14;95816.44;5130365;28;20928;-75
2022/10/06 05:32:06;;;;;;;2.95;2.33;;;;;;;13.09;70.00;95821.44;5130181;28;20205;-74
2022/10/06 05:34:33;;;;;;;4.30;2.90;;;;;;;13.81;68.76;95810.91;5129940;28;20561;-74
2022/10/06 05:37:01;;;;;;;3.60;2.55;;;;;;;14.45;65.52;95793.94;5130398;27;20218;-75
2022/10/06 05:39:28;;;;;;;12.25;3.13;;;;;;;14.95;62.68;95802.31;5129794;27;20197;-74
2022/10/06 05:41:55;;;;;;;6.30;3.20;;;;;;;15.51;60.45;95795.63;5130083;28;20209;-76
2022/10/06 05:44:22;;;;;;;6.25;3.08;;;;;;;16.21;59.74;95794.06;5130829;27;20196;-74
2022/10/06 05:46:48;;;;;;;8.43;2.92;;;;;;;16.57;56.65;95792.59;5133438;27;20201;-75
2022/10/06 05:49:15;;;;;;;8.40;3.67;;;;;;;16.12;59.27;95793.34;5133461;27;20201;-75
2022/10/06 05:51:42;;;;;;;4.95;3.05;;;;;;;16.40;58.56;95788.06;5133312;27;20193;-74
2022/10/06 05:54:13;;;;;;;4.18;2.70;;;;;;;16.60;59.06;95805.59;5133636;27;20295;-74
2022/10/06 05:56:39;;;;;;;6.07;3.70;;;;;;;16.53;57.48;95802.63;5133356;27;20554;-74
2022/10/06 05:59:06;;;;;;;9.82;3.65;;;;;;;16.72;55.78;95794.72;5133402;27;20265;-74
2022/10/06 06:01:35;;;;;;;13.77;3.72;;;;;;;15.68;56.31;95802.16;5133633;27;20273;-73
2022/10/06 06:04:05;;;;;;;11.75;5.22;;;;;;;15.57;58.74;95802.56;5133050;27;20258;-75
2022/10/06 06:06:34;;;;;;;5.03;3.30;;;;;;;15.96;57.62;95800.53;5133372;27;20293;-75
2022/10/06 06:09:05;;;;;;;5.60;2.95;;;;;;;16.09;56.98;95806.88;5123378;27;20201;-74
2022/10/06 06:11:35;;;;;;;2.72;2.47;;;;;;;16.25;56.29;95808.66;5133194;27;20232;-75
2022/10/06 06:14:04;;;;;;;8.25;3.70;;;;;;;16.38;55.18;95803.25;5133176;27;20197;-74
2022/10/06 06:16:30;;;;;;;10.55;4.10;;;;;;;16.68;54.97;95804.75;5119317;27;20699;-74
2022/10/06 06:18:58;;;;;;;13.30;4.13;;;;;;;16.31;56.36;95801.84;5132721;27;20201;-74
2022/10/06 06:21:25;;;;;;;9.75;4.35;;;;;;;16.25;56.85;95808.66;5132680;27;20193;-74
2022/10/06 06:23:53;;;;;;;6.53;3.60;;;;;;;15.52;58.20;95813.63;5132988;27;20283;-73
2022/10/06 06:26:22;;;;;;;6.78;3.08;;;;;;;16.57;55.89;95811.75;5132572;27;20250;-74
2022/10/06 06:28:52;;;;;;;6.45;3.45;;;;;;;15.82;57.11;95821.84;5127580;27;20201;-73
2022/10/06 06:31:20;;;;;;;5.22;3.08;;;;;;;15.71;57.89;95815.97;5132370;27;20213;-73
2022/10/06 06:33:48;;;;;;;4.25;3.10;;;;;;;15.21;58.73;95818.59;5131612;27;20253;-73
2022/10/06 06:36:16;;;;;;;9.32;4.93;;;;;;;15.04;59.66;95824.91;5131425;27;20660;-74
2022/10/06 06:38:46;;;;;;;5.50;3.53;;;;;;;14.36;60.94;95825.81;5131458;27;20193;-73
2022/10/06 06:41:14;;;;;;;6.20;3.55;;;;;;;15.07;60.17;95823.47;5132050;27;20228;-75
2022/10/06 06:43:42;;;;;;;9.65;5.07;;;;;;;14.77;59.56;95819.84;5129461;27;20200;-74
2022/10/06 06:46:11;;;;;;;7.88;2.88;;;;;;;14.36;61.32;95823.09;5129523;27;20225;-74
2022/10/06 06:48:38;;;;;;;13.65;4.07;;;;;;;14.30;61.90;95832.56;5131437;27;20242;-74
2022/10/06 06:51:06;;;;;;;5.50;3.20;;;;;;;14.22;62.94;95826.78;5131125;27;20297;-74
2022/10/06 06:53:33;;;;;;;9.55;3.60;;;;;;;14.70;61.96;95820.38;5131254;27;20261;-74
2022/10/06 06:56:00;;;;;;;4.50;3.47;;;;;;;14.50;61.90;95818.28;5130594;27;20601;-74
2022/10/06 06:58:27;;;;;;;5.65;3.05;;;;;;;14.63;61.98;95809.13;5131888;27;20193;-74
2022/10/06 07:00:54;;;;;;;11.80;3.35;;;;;;;14.39;62.53;95817.00;5131678;27;20616;-73
2022/10/06 07:03:22;;;;;;;4.45;3.20;;;;;;;14.15;63.43;95815.56;5131747;27;20193;-73
2022/10/06 07:05:49;;;;;;;4.38;2.80;;;;;;;14.55;62.87;95807.22;5131106;27;20217;-74
2022/10/06 07:08:19;;;;;;;7.15;3.67;;;;;;;14.89;61.21;95812.63;5131043;27;20197;-74
2022/10/06 07:10:47;;;;;;;10.90;4.03;;;;;;;14.44;61.59;95806.78;5131263;27;20200;-73
2022/10/06 07:13:16;;;;;;;6.03;2.88;;;;;;;14.02;63.92;95808.38;5134132;27;20197;-74
2022/10/06 07:26:48;;;;;;;7.70;3.47;;;;;;;13.23;65.54;95814.00;5131725;27;20228;-73
2022/10/06 07:29:15;;;;;;;4.72;3.45;;;;;;;12.90;65.46;95818.13;5131557;27;20246;-73
2022/10/06 07:31:42;;;;;;;11.05;5.72;;;;;;;13.13;65.44;95797.91;5131708;27;20205;-73
2022/10/06 07:34:10;;;;;;;7.63;5.05;;;;;;;13.55;64.77;95804.63;5131886;27;20209;-73
2022/10/06 07:36:37;;;;;;;4.93;3.85;;;;;;;13.53;64.17;95799.47;5131086;27;20265;-74
2022/10/06 07:39:04;;;;;;;8.77;3.80;;;;;;;13.53;64.21;95793.22;5130693;27;20703;-74
2022/10/06 07:41:31;;;;;;;9.10;4.10;;;;;;;13.24;64.76;95801.19;5131555;27;20606;-72
2022/10/06 07:43:58;;;;;;;8.75;5.68;;;;;;;13.30;64.89;95800.72;5131032;27;20665;-74
2022/10/06 07:46:24;;;;;;;11.52;5.18;;;;;;;13.53;64.30;95791.31;5130594;27;20237;-74
2022/10/06 07:48:51;;;;;;;6.65;3.83;;;;;;;13.89;63.10;95790.25;5130591;27;20254;-74
2022/10/06 07:51:20;;;;;;;6.80;3.38;;;;;;;14.09;62.93;95800.50;5130267;27;20231;-74
2022/10/06 07:53:50;;;;;;;7.50;4.47;;;;;;;13.78;63.86;95794.41;5130589;27;20667;-74
2022/10/06 07:56:19;;;;;;;8.77;5.28;;;;;;;13.49;64.32;95803.97;5130466;27;20525;-75
2022/10/06 07:58:47;;;;;;;8.75;5.13;;;;;;;14.19;63.11;95800.19;5130103;27;20207;-74
2022/10/06 08:01:16;;;;;;;10.25;3.42;;;;;;;14.22;62.21;95798.72;5130374;27;20221;-74
2022/10/06 08:03:44;;;;;;;6.75;3.90;;;;;;;13.99;62.28;95795.38;5131009;27;20204;-74
2022/10/06 08:06:13;;;;;;;7.20;3.63;;;;;;;14.19;62.34;95804.84;5130412;27;20961;-74
2022/10/06 08:08:42;;;;;;;6.10;3.40;;;;;;;13.94;62.46;95806.44;5130318;27;20227;-73
2022/10/06 08:11:11;;;;;;;4.53;3.03;;;;;;;13.96;63.46;95801.47;5130434;27;20270;-73
2022/10/06 08:13:39;;;;;;;6.03;3.20;;;;;;;14.42;63.18;95800.03;5130236;27;20221;-74
2022/10/06 08:16:08;;;;;;;6.80;3.47;;;;;;;14.37;63.21;95800.16;5130256;27;20211;-74
2022/10/06 08:18:35;;;;;;;9.65;3.03;;;;;;;13.93;62.66;95791.22;5130046;27;20250;-74
2022/10/06 08:21:09;;;;;;;6.95;3.67;;;;;;;13.88;62.99;95794.09;5130335;27;20212;-74
2022/10/06 08:23:39;;;;;;;4.55;2.97;;;;;;;14.22;62.84;95798.72;5130524;27;20242;-75
2022/10/06 08:26:07;;;;;;;5.03;3.00;;;;;;;14.50;63.03;95791.84;5129791;27;20221;-75
2022/10/06 08:28:35;;;;;;;4.38;2.55;;;;;;;14.80;61.45;95786.47;5130175;27;20672;-74
2022/10/06 08:31:04;;;;;;;3.70;2.88;;;;;;;15.09;58.98;95775.63;5130069;28;20630;-75
2022/10/06 08:33:31;;;;;;;8.07;4.30;;;;;;;15.37;59.76;95789.63;5130395;28;20605;-75
2022/10/06 08:36:02;;;;;;;5.35;4.15;;;;;;;15.46;60.27;95782.16;5130431;28;20567;-75
2022/10/06 08:38:30;;;;;;;6.05;3.10;;;;;;;15.24;59.28;95774.25;5130114;28;20203;-74
2022/10/06 08:40:57;;;;;;;4.95;2.85;;;;;;;15.37;58.94;95784.16;5130232;28;20200;-74
2022/10/06 08:43:27;;;;;;;4.57;3.10;;;;;;;15.29;59.15;95774.09;5130143;28;20269;-75
2022/10/06 08:45:59;;;;;;;4.43;2.58;;;;;;;15.59;58.19;95778.41;5130288;28;20225;-74
2022/10/06 08:48:27;;;;;;;6.82;3.03;;;;;;;15.61;58.50;95767.97;5130019;28;20205;-74
2022/10/06 08:51:18;;;;;;;5.35;2.97;;;;;;;15.53;59.04;95777.00;5129655;28;20273;-75
2022/10/06 08:53:54;;;;;;;5.50;3.00;;;;;;;15.51;57.81;95768.31;5130547;27;20341;-74
2022/10/06 08:56:25;;;;;;;7.57;5.28;;;;;;;16.00;56.90;95768.66;5129571;28;20749;-74
2022/10/06 08:58:56;;;;;;;4.32;1.98;;;;;;;15.52;59.45;95769.94;5130230;28;20250;-73
2022/10/06 09:01:25;;;;;;;6.38;3.63;;;;;;;15.53;59.39;95774.25;5130236;28;20360;-74
2022/10/06 09:03:56;;;;;;;8.43;3.40;;;;;;;15.48;58.22;95766.25;5130012;28;20205;-74
2022/10/06 09:06:37;;;;;;;7.22;3.17;;;;;;;15.78;58.38;95769.78;5129993;27;20220;-73
2022/10/06 09:09:17;;;;;;;6.88;3.30;;;;;;;16.00;58.81;95774.91;5129852;28;20205;-74
2022/10/06 09:11:57;;;;;;;6.60;2.92;;;;;;;16.19;58.29;95768.97;5130608;28;20201;-75
2022/10/06 09:14:32;;;;;;;7.53;3.95;;;;;;;16.01;58.62;95767.50;5130066;27;20293;-75
2022/10/06 09:17:04;;;;;;;5.18;3.28;;;;;;;16.05;58.14;95765.72;5129957;28;20208;-75
2022/10/06 09:19:40;;;;;;;5.82;3.50;;;;;;;15.80;58.75;95764.78;5130294;27;20197;-74
2022/10/06 09:22:15;;;;;;;5.70;3.30;;;;;;;15.98;57.71;95762.75;5133287;27;20249;-74
2022/10/06 09:24:44;;;;;;;10.52;4.13;;;;;;;16.12;57.33;95766.00;5134118;27;20236;-74
2022/10/06 09:27:18;;;;;;;12.90;4.72;;;;;;;16.02;57.29;95769.13;5133910;27;20635;-75
2022/10/06 09:29:48;;;;;;;5.88;3.72;;;;;;;15.82;58.27;95757.06;5133558;27;20605;-73
2022/10/06 09:32:15;;;;;;;4.85;3.42;;;;;;;15.93;57.29;95761.00;5133607;27;20675;-73
2022/10/06 09:34:46;;;;;;;7.78;4.15;;;;;;;16.20;57.52;95745.97;5133472;27;20270;-74
2022/10/06 09:37:13;;;;;;;5.85;3.78;;;;;;;16.61;57.04;95744.28;5133459;27;20254;-75
2022/10/06 09:39:42;;;;;;;7.88;4.13;;;;;;;16.83;56.62;95752.09;5132977;27;20661;-73
2022/10/06 09:42:15;;;;;;;6.60;3.83;;;;;;;16.29;56.30;95734.94;5133173;27;20197;-74
2022/10/06 09:45:10;;;;;;;5.82;3.50;;;;;;;16.73;56.23;95740.78;5133604;27;20250;-74
2022/10/06 09:47:43;;;;;;;5.55;3.58;;;;;;;16.56;56.93;95741.75;5132998;27;20722;-74
2022/10/06 09:50:20;;;;;;;6.13;4.40;;;;;;;16.90;55.07;95741.41;5132553;27;20232;-74
2022/10/06 09:53:17;;;;;;;8.55;4.45;;;;;;;17.29;54.36;95730.91;5133443;27;20201;-75
2022/10/06 09:55:50;;;;;;;7.80;3.67;;;;;;;17.34;54.29;95727.97;5049442;28;20289;-75
2022/10/06 09:58:31;;;;;;;4.78;3.33;;;;;;;17.27;53.92;95714.81;5116843;27;20204;-75
2022/10/06 10:01:01;;;;;;;6.60;3.30;;;;;;;17.38;54.15;95723.38;5132522;27;20229;-75
2022/10/06 10:03:45;;;;;;;5.55;2.70;;;;;;;17.74;51.90;95717.88;5133475;27;20246;-75
2022/10/06 10:06:22;;;;;;;6.10;4.00;;;;;;;17.77;50.78;95716.38;5132921;27;20736;-75
2022/10/06 10:08:49;;;;;;;9.57;4.53;;;;;;;17.98;50.95;95718.94;5133089;27;20283;-75
2022/10/06 10:14:16;;;;;;;4.60;4.10;;;;;;;17.94;51.62;95718.84;5132450;27;20312;-75
2022/10/06 10:16:45;;;;;;;6.82;4.22;;;;;;;17.98;50.90;95718.94;5132660;27;20189;-75
2022/10/06 10:19:24;;;;;;;7.05;4.65;;;;;;;17.90;52.17;95717.16;5132196;27;20205;-75
2022/10/06 10:21:52;;;;;;;7.57;4.40;;;;;;;17.84;52.37;95713.03;5132616;27;20197;-74
2022/10/06 10:24:25;;;;;;;6.70;4.55;;;;;;;17.91;51.63;95713.25;5132414;27;20205;-74
2022/10/06 10:27:00;;;;;;;9.40;4.78;;;;;;;18.07;52.21;95705.88;5132518;27;20664;-75
2022/10/06 10:29:48;;;;;;;6.40;4.15;;;;;;;18.43;51.34;95697.50;5118675;27;20200;-75
2022/10/06 10:32:23;;;;;;;7.05;4.05;;;;;;;18.84;50.21;95695.44;5131420;27;20383;-74
2022/10/06 10:35:03;;;;;;;8.57;4.43;;;;;;;18.76;50.81;95690.91;5132790;27;20655;-74
2022/10/06 10:37:40;;;;;;;5.30;3.90;;;;;;;18.16;51.08;95692.84;5131854;27;20668;-75
2022/10/06 10:40:17;;;;;;;7.45;4.10;;;;;;;18.23;48.67;95692.22;5131832;27;20312;-74
2022/10/06 10:42:49;;;;;;;6.38;3.88;;;;;;;18.57;46.44;95685.31;5131621;27;20273;-74
2022/10/06 10:45:22;;;;;;;5.72;3.58;;;;;;;18.19;48.23;95681.13;5132135;27;20306;-74
2022/10/06 10:47:50;;;;;;;5.85;4.00;;;;;;;18.46;47.69;95685.78;5132421;27;20253;-74
2022/10/06 10:50:24;;;;;;;6.47;3.58;;;;;;;18.29;47.69;95680.66;5131760;27;20240;-74
2022/10/06 10:52:55;;;;;;;7.20;3.67;;;;;;;18.82;47.45;95675.78;5132268;27;20512;-75
2022/10/06 10:55:27;;;;;;;4.20;3.03;;;;;;;19.24;44.34;95669.72;5132220;27;20673;-75
2022/10/06 10:57:57;;;;;;;5.53;3.35;;;;;;;19.62;44.52;95658.81;5132215;27;20201;-74
2022/10/06 11:00:27;;;;;;;5.38;3.75;;;;;;;19.91;43.04;95662.19;5132026;27;20696;-75
2022/10/06 11:02:58;;;;;;;5.88;3.63;;;;;;;19.40;42.63;95663.03;5131426;27;20786;-75
2022/10/06 11:05:49;;;;;;;5.53;3.45;;;;;;;19.39;44.63;95663.41;5132364;27;20213;-75
2022/10/06 11:08:27;;;;;;;4.60;3.45;;;;;;;19.71;43.98;95658.59;5131614;27;20216;-75
2022/10/06 11:10:58;;;;;;;5.53;3.55;;;;;;;20.02;42.93;95658.47;5132184;27;20216;-74
2022/10/06 11:13:32;;;;;;;5.45;4.15;;;;;;;19.95;42.95;95649.31;5131351;27;20229;-74
2022/10/06 11:16:18;;;;;;;5.78;3.42;;;;;;;20.39;42.26;95653.31;5131485;27;20668;-74
2022/10/06 11:19:04;;;;;;;7.50;3.33;;;;;;;20.47;39.83;95649.56;5131529;27;20606;-74
2022/10/06 11:21:36;;;;;;;7.43;3.35;;;;;;;20.66;39.12;95640.44;5131598;27;20236;-74
2022/10/06 11:24:11;;;;;;;6.07;3.40;;;;;;;20.67;38.23;95641.22;5131198;27;20281;-75
2022/10/06 11:27:09;;;;;;;5.68;3.40;;;;;;;20.84;37.74;95638.78;5131383;27;20220;-74
2022/10/06 11:29:47;;;;;;;5.40;2.80;;;;;;;20.71;37.34;95636.59;5119312;27;20557;-74
2022/10/06 11:32:25;;;;;;;4.40;2.85;;;;;;;20.93;37.79;95627.50;5130904;27;20227;-74
2022/10/06 11:34:54;;;;;;;3.80;2.72;;;;;;;20.96;36.23;95614.94;5131360;27;20728;-74
2022/10/06 11:37:33;;;;;;;4.05;2.20;;;;;;;20.99;35.39;95620.53;5130767;27;20253;-74
2022/10/06 11:40:20;;;;;;;5.90;2.30;;;;;;;20.72;33.96;95625.19;5130441;27;20316;-74
2022/10/06 11:42:53;;;;;;;3.58;2.08;;;;;;;20.91;34.75;95613.28;5130003;27;20201;-74
2022/10/06 11:45:28;;;;;;;6.18;2.42;;;;;;;21.15;35.59;95612.09;5130067;27;20196;-74
2022/10/06 11:48:17;;;;;;;2.33;1.63;;;;;;;20.40;34.00;95613.63;5130414;27;20278;-74
2022/10/06 11:50:48;;;;;;;1.60;1.38;;;;;;;20.56;33.90;95606.06;5130698;27;20311;-74
2022/10/06 11:53:27;;;;;;;3.08;1.60;;;;;;;20.62;35.06;95595.53;5130591;27;20243;-74
2022/10/06 11:56:42;;;;;;;2.58;1.70;;;;;;;20.99;35.42;95592.97;5130911;27;20602;-73
2022/10/06 11:59:11;;;;;;;1.95;1.70;;;;;;;21.23;34.27;95587.06;5130279;27;20217;-71
2022/10/06 12:01:55;;;;;;;3.58;1.48;;;;;;;21.20;34.57;95587.78;5130110;27;20201;-74
2022/10/06 12:04:25;;;;;;;3.08;1.90;;;;;;;20.99;35.17;95581.94;5129086;27;20200;-73
2022/10/06 12:07:03;;;;;;;2.15;1.80;;;;;;;21.43;34.18;95575.91;5124948;27;20717;-74